sensor_id;sensor_type;location;lat;lon;timestamp;temperature;humidity
76607;DHT22;65498;50.916;4.698;2023-05-29T00:00:29;23.40;52.60
76607;DHT22;65498;50.916;4.698;2023-05-29T00:02:58;23.40;52.60
76607;DHT22;65498;50.916;4.698;2023-05-29T00:05:25;23.40;52.60
76607;DHT22;65498;50.916;4.698;2023-05-29T00:07:53;23.40;52.70
76607;DHT22;65498;50.916;4.698;2023-05-29T00:10:20;23.40;52.70
76607;DHT22;65498;50.916;4.698;2023-05-29T00:12:48;23.40;52.90
76607;DHT22;65498;50.916;4.698;2023-05-29T00:15:16;23.30;52.80
76607;DHT22;65498;50.916;4.698;2023-05-29T00:17:43;23.40;52.60
76607;DHT22;65498;50.916;4.698;2023-05-29T00:20:11;23.40;52.40
76607;DHT22;65498;50.916;4.698;2023-05-29T00:22:39;23.40;52.40
76607;DHT22;65498;50.916;4.698;2023-05-29T00:25:07;23.40;52.10
76607;DHT22;65498;50.916;4.698;2023-05-29T00:27:35;23.40;51.90
76607;DHT22;65498;50.916;4.698;2023-05-29T00:30:04;23.40;51.30
76607;DHT22;65498;50.916;4.698;2023-05-29T00:32:32;23.40;51.40
76607;DHT22;65498;50.916;4.698;2023-05-29T00:34:59;23.40;51.80
76607;DHT22;65498;50.916;4.698;2023-05-29T00:37:27;23.30;50.90
76607;DHT22;65498;50.916;4.698;2023-05-29T00:39:54;23.30;51.40
76607;DHT22;65498;50.916;4.698;2023-05-29T00:42:22;23.30;51.50
76607;DHT22;65498;50.916;4.698;2023-05-29T00:44:49;23.30;51.50
76607;DHT22;65498;50.916;4.698;2023-05-29T00:47:17;23.30;51.50
76607;DHT22;65498;50.916;4.698;2023-05-29T00:49:45;23.30;50.90
76607;DHT22;65498;50.916;4.698;2023-05-29T00:52:12;23.30;51.50
76607;DHT22;65498;50.916;4.698;2023-05-29T00:54:43;23.30;51.50
76607;DHT22;65498;50.916;4.698;2023-05-29T00:57:13;23.30;51.60
76607;DHT22;65498;50.916;4.698;2023-05-29T00:59:41;23.30;51.70
76607;DHT22;65498;50.916;4.698;2023-05-29T01:02:09;23.30;51.70
76607;DHT22;65498;50.916;4.698;2023-05-29T01:04:38;23.30;51.60
76607;DHT22;65498;50.916;4.698;2023-05-29T01:07:05;23.30;52.00
76607;DHT22;65498;50.916;4.698;2023-05-29T01:09:33;23.30;51.50
76607;DHT22;65498;50.916;4.698;2023-05-29T01:20:47;23.30;51.60
76607;DHT22;65498;50.916;4.698;2023-05-29T01:26:11;23.20;51.70
76607;DHT22;65498;50.916;4.698;2023-05-29T01:28:49;23.20;51.60
76607;DHT22;65498;50.916;4.698;2023-05-29T01:31:20;23.20;51.70
76607;DHT22;65498;50.916;4.698;2023-05-29T01:33:56;23.20;51.50
76607;DHT22;65498;50.916;4.698;2023-05-29T01:36:24;23.20;51.90
76607;DHT22;65498;50.916;4.698;2023-05-29T01:38:55;23.20;51.70
76607;DHT22;65498;50.916;4.698;2023-05-29T01:41:24;23.20;51.80
76607;DHT22;65498;50.916;4.698;2023-05-29T01:43:53;23.20;52.30
76607;DHT22;65498;50.916;4.698;2023-05-29T01:46:22;23.20;52.00
76607;DHT22;65498;50.916;4.698;2023-05-29T01:48:53;23.20;51.80
76607;DHT22;65498;50.916;4.698;2023-05-29T01:51:22;23.20;52.00
76607;DHT22;65498;50.916;4.698;2023-05-29T01:53:50;23.20;52.00
76607;DHT22;65498;50.916;4.698;2023-05-29T01:56:18;23.20;52.10
76607;DHT22;65498;50.916;4.698;2023-05-29T01:58:46;23.20;51.60
76607;DHT22;65498;50.916;4.698;2023-05-29T02:01:14;23.20;51.60
76607;DHT22;65498;50.916;4.698;2023-05-29T02:03:42;23.20;51.60
76607;DHT22;65498;50.916;4.698;2023-05-29T02:06:10;23.20;51.90
76607;DHT22;65498;50.916;4.698;2023-05-29T02:08:37;23.20;51.90
76607;DHT22;65498;50.916;4.698;2023-05-29T02:11:05;23.20;52.10
76607;DHT22;65498;50.916;4.698;2023-05-29T02:13:33;23.20;51.70
76607;DHT22;65498;50.916;4.698;2023-05-29T02:16:00;23.20;51.80
76607;DHT22;65498;50.916;4.698;2023-05-29T02:18:28;23.20;51.90
76607;DHT22;65498;50.916;4.698;2023-05-29T02:20:56;23.20;51.90
76607;DHT22;65498;50.916;4.698;2023-05-29T02:23:23;23.20;51.70
76607;DHT22;65498;50.916;4.698;2023-05-29T02:25:51;23.20;52.70
76607;DHT22;65498;50.916;4.698;2023-05-29T02:28:18;23.20;51.80
76607;DHT22;65498;50.916;4.698;2023-05-29T02:30:46;23.20;52.30
76607;DHT22;65498;50.916;4.698;2023-05-29T02:33:13;23.20;52.00
76607;DHT22;65498;50.916;4.698;2023-05-29T02:35:42;23.10;51.80
76607;DHT22;65498;50.916;4.698;2023-05-29T02:38:10;23.10;52.60
76607;DHT22;65498;50.916;4.698;2023-05-29T02:40:37;23.10;52.20
76607;DHT22;65498;50.916;4.698;2023-05-29T02:43:08;23.10;51.80
76607;DHT22;65498;50.916;4.698;2023-05-29T02:45:34;23.10;52.30
76607;DHT22;65498;50.916;4.698;2023-05-29T02:48:01;23.10;52.50
76607;DHT22;65498;50.916;4.698;2023-05-29T02:50:30;23.10;52.30
76607;DHT22;65498;50.916;4.698;2023-05-29T02:52:57;23.10;51.90
76607;DHT22;65498;50.916;4.698;2023-05-29T02:55:25;23.10;52.30
76607;DHT22;65498;50.916;4.698;2023-05-29T02:57:53;23.10;52.40
76607;DHT22;65498;50.916;4.698;2023-05-29T03:00:21;23.10;52.20
76607;DHT22;65498;50.916;4.698;2023-05-29T03:03:08;23.10;52.70
76607;DHT22;65498;50.916;4.698;2023-05-29T03:05:36;23.10;52.70
76607;DHT22;65498;50.916;4.698;2023-05-29T03:08:03;23.10;52.70
76607;DHT22;65498;50.916;4.698;2023-05-29T03:10:31;23.10;52.70
76607;DHT22;65498;50.916;4.698;2023-05-29T03:12:59;23.10;53.20
76607;DHT22;65498;50.916;4.698;2023-05-29T03:15:26;23.10;53.10
76607;DHT22;65498;50.916;4.698;2023-05-29T03:17:54;23.00;52.40
76607;DHT22;65498;50.916;4.698;2023-05-29T03:20:21;23.00;53.20
76607;DHT22;65498;50.916;4.698;2023-05-29T03:22:50;23.10;52.70
76607;DHT22;65498;50.916;4.698;2023-05-29T03:25:19;23.10;52.30
76607;DHT22;65498;50.916;4.698;2023-05-29T03:27:46;23.00;52.50
76607;DHT22;65498;50.916;4.698;2023-05-29T03:30:14;23.00;52.80
76607;DHT22;65498;50.916;4.698;2023-05-29T03:32:41;23.00;53.50
76607;DHT22;65498;50.916;4.698;2023-05-29T03:35:09;23.00;52.60
76607;DHT22;65498;50.916;4.698;2023-05-29T03:37:36;23.00;51.90
76607;DHT22;65498;50.916;4.698;2023-05-29T03:40:04;23.00;53.70
76607;DHT22;65498;50.916;4.698;2023-05-29T03:42:33;23.00;52.20
76607;DHT22;65498;50.916;4.698;2023-05-29T03:45:00;23.00;52.20
76607;DHT22;65498;50.916;4.698;2023-05-29T03:47:28;23.00;53.10
76607;DHT22;65498;50.916;4.698;2023-05-29T03:49:56;23.00;52.70
76607;DHT22;65498;50.916;4.698;2023-05-29T03:52:24;23.00;53.50
76607;DHT22;65498;50.916;4.698;2023-05-29T03:54:51;23.00;53.00
76607;DHT22;65498;50.916;4.698;2023-05-29T03:57:19;23.00;52.20
76607;DHT22;65498;50.916;4.698;2023-05-29T03:59:46;23.00;52.40
76607;DHT22;65498;50.916;4.698;2023-05-29T04:02:14;23.00;53.00
76607;DHT22;65498;50.916;4.698;2023-05-29T04:04:41;23.00;52.20
76607;DHT22;65498;50.916;4.698;2023-05-29T04:07:09;23.00;52.10
76607;DHT22;65498;50.916;4.698;2023-05-29T04:09:37;23.00;52.20
76607;DHT22;65498;50.916;4.698;2023-05-29T04:12:05;22.90;51.90
76607;DHT22;65498;50.916;4.698;2023-05-29T04:14:32;22.90;53.60
76607;DHT22;65498;50.916;4.698;2023-05-29T04:17:00;22.90;53.30
76607;DHT22;65498;50.916;4.698;2023-05-29T04:19:27;22.90;52.60
76607;DHT22;65498;50.916;4.698;2023-05-29T04:21:55;22.90;53.40
76607;DHT22;65498;50.916;4.698;2023-05-29T04:24:22;22.90;53.20
76607;DHT22;65498;50.916;4.698;2023-05-29T04:26:50;22.90;53.60
76607;DHT22;65498;50.916;4.698;2023-05-29T04:29:18;22.90;53.00
76607;DHT22;65498;50.916;4.698;2023-05-29T04:31:46;22.90;52.50
76607;DHT22;65498;50.916;4.698;2023-05-29T04:34:14;23.00;53.60
76607;DHT22;65498;50.916;4.698;2023-05-29T04:36:42;22.90;53.10
76607;DHT22;65498;50.916;4.698;2023-05-29T04:39:11;22.90;53.70
76607;DHT22;65498;50.916;4.698;2023-05-29T04:41:40;23.00;53.70
76607;DHT22;65498;50.916;4.698;2023-05-29T04:44:07;23.00;52.60
76607;DHT22;65498;50.916;4.698;2023-05-29T04:46:37;22.90;52.10
76607;DHT22;65498;50.916;4.698;2023-05-29T04:49:04;22.90;52.90
76607;DHT22;65498;50.916;4.698;2023-05-29T04:51:32;22.90;53.00
76607;DHT22;65498;50.916;4.698;2023-05-29T04:54:00;22.90;53.30
76607;DHT22;65498;50.916;4.698;2023-05-29T04:56:27;22.90;52.50
76607;DHT22;65498;50.916;4.698;2023-05-29T04:58:55;22.90;51.80
76607;DHT22;65498;50.916;4.698;2023-05-29T05:01:25;23.00;52.20
76607;DHT22;65498;50.916;4.698;2023-05-29T05:03:52;23.00;51.80
76607;DHT22;65498;50.916;4.698;2023-05-29T05:06:23;23.00;52.50
76607;DHT22;65498;50.916;4.698;2023-05-29T05:08:52;23.00;52.40
76607;DHT22;65498;50.916;4.698;2023-05-29T05:11:21;23.00;53.30
76607;DHT22;65498;50.916;4.698;2023-05-29T05:13:49;23.00;53.10
76607;DHT22;65498;50.916;4.698;2023-05-29T05:16:17;23.10;53.80
76607;DHT22;65498;50.916;4.698;2023-05-29T05:18:44;23.10;52.10
76607;DHT22;65498;50.916;4.698;2023-05-29T05:21:12;23.10;52.10
76607;DHT22;65498;50.916;4.698;2023-05-29T05:23:40;23.20;51.20
76607;DHT22;65498;50.916;4.698;2023-05-29T05:26:08;23.20;50.00
76607;DHT22;65498;50.916;4.698;2023-05-29T05:28:35;23.20;49.40
76607;DHT22;65498;50.916;4.698;2023-05-29T05:31:03;23.20;47.90
76607;DHT22;65498;50.916;4.698;2023-05-29T05:33:31;23.30;47.90
76607;DHT22;65498;50.916;4.698;2023-05-29T05:35:58;23.30;48.00
76607;DHT22;65498;50.916;4.698;2023-05-29T05:38:26;23.30;48.20
76607;DHT22;65498;50.916;4.698;2023-05-29T05:40:53;23.30;47.50
76607;DHT22;65498;50.916;4.698;2023-05-29T05:43:22;23.30;47.70
76607;DHT22;65498;50.916;4.698;2023-05-29T05:45:49;23.40;47.70
76607;DHT22;65498;50.916;4.698;2023-05-29T05:48:17;23.40;47.30
76607;DHT22;65498;50.916;4.698;2023-05-29T05:50:44;23.40;48.30
76607;DHT22;65498;50.916;4.698;2023-05-29T05:53:12;23.40;47.00
76607;DHT22;65498;50.916;4.698;2023-05-29T05:55:39;23.40;48.00
76607;DHT22;65498;50.916;4.698;2023-05-29T05:58:07;23.50;47.70
76607;DHT22;65498;50.916;4.698;2023-05-29T06:00:34;23.50;48.40
76607;DHT22;65498;50.916;4.698;2023-05-29T06:03:02;23.50;47.90
76607;DHT22;65498;50.916;4.698;2023-05-29T06:05:30;23.50;47.30
76607;DHT22;65498;50.916;4.698;2023-05-29T06:07:57;23.50;48.00
76607;DHT22;65498;50.916;4.698;2023-05-29T06:10:25;23.50;47.40
76607;DHT22;65498;50.916;4.698;2023-05-29T06:12:52;23.50;48.80
76607;DHT22;65498;50.916;4.698;2023-05-29T06:15:20;23.40;46.40
76607;DHT22;65498;50.916;4.698;2023-05-29T06:17:48;23.40;46.90
76607;DHT22;65498;50.916;4.698;2023-05-29T06:20:17;23.30;47.70
76607;DHT22;65498;50.916;4.698;2023-05-29T06:22:46;23.40;49.10
76607;DHT22;65498;50.916;4.698;2023-05-29T06:25:15;23.60;48.90
76607;DHT22;65498;50.916;4.698;2023-05-29T06:27:43;23.70;48.40
76607;DHT22;65498;50.916;4.698;2023-05-29T06:30:11;23.80;48.20
76607;DHT22;65498;50.916;4.698;2023-05-29T06:32:39;23.80;48.00
76607;DHT22;65498;50.916;4.698;2023-05-29T06:35:07;23.90;48.00
76607;DHT22;65498;50.916;4.698;2023-05-29T06:37:34;23.90;48.10
76607;DHT22;65498;50.916;4.698;2023-05-29T06:40:02;23.90;48.00
76607;DHT22;65498;50.916;4.698;2023-05-29T06:42:31;24.00;47.50
76607;DHT22;65498;50.916;4.698;2023-05-29T06:44:58;24.00;48.00
76607;DHT22;65498;50.916;4.698;2023-05-29T06:47:26;24.10;47.50
76607;DHT22;65498;50.916;4.698;2023-05-29T06:49:54;24.20;47.70
76607;DHT22;65498;50.916;4.698;2023-05-29T06:52:22;24.20;46.80
76607;DHT22;65498;50.916;4.698;2023-05-29T06:54:49;24.20;47.20
76607;DHT22;65498;50.916;4.698;2023-05-29T06:57:17;24.20;47.30
76607;DHT22;65498;50.916;4.698;2023-05-29T06:59:44;24.20;46.70
76607;DHT22;65498;50.916;4.698;2023-05-29T07:02:12;24.20;47.30
76607;DHT22;65498;50.916;4.698;2023-05-29T07:04:39;24.20;46.70
76607;DHT22;65498;50.916;4.698;2023-05-29T07:07:07;24.20;47.00
76607;DHT22;65498;50.916;4.698;2023-05-29T07:09:35;24.20;47.10
76607;DHT22;65498;50.916;4.698;2023-05-29T07:12:02;24.20;47.00
76607;DHT22;65498;50.916;4.698;2023-05-29T07:14:30;24.20;47.00
76607;DHT22;65498;50.916;4.698;2023-05-29T07:16:57;24.20;46.80
76607;DHT22;65498;50.916;4.698;2023-05-29T07:19:25;24.20;46.90
76607;DHT22;65498;50.916;4.698;2023-05-29T07:21:54;24.20;46.60
76607;DHT22;65498;50.916;4.698;2023-05-29T07:24:21;24.20;46.80
76607;DHT22;65498;50.916;4.698;2023-05-29T07:26:49;24.30;46.90
76607;DHT22;65498;50.916;4.698;2023-05-29T07:29:16;24.20;46.80
76607;DHT22;65498;50.916;4.698;2023-05-29T07:31:46;24.20;46.90
76607;DHT22;65498;50.916;4.698;2023-05-29T07:34:13;24.20;46.80
76607;DHT22;65498;50.916;4.698;2023-05-29T07:37:00;24.20;46.60
76607;DHT22;65498;50.916;4.698;2023-05-29T07:39:29;24.20;46.50
76607;DHT22;65498;50.916;4.698;2023-05-29T07:41:57;24.20;46.50
76607;DHT22;65498;50.916;4.698;2023-05-29T07:44:25;24.20;47.00
76607;DHT22;65498;50.916;4.698;2023-05-29T07:46:53;24.20;46.90
76607;DHT22;65498;50.916;4.698;2023-05-29T07:49:20;24.20;46.80
76607;DHT22;65498;50.916;4.698;2023-05-29T07:51:48;24.20;47.10
76607;DHT22;65498;50.916;4.698;2023-05-29T07:54:16;24.20;46.60
76607;DHT22;65498;50.916;4.698;2023-05-29T07:56:47;24.20;46.80
76607;DHT22;65498;50.916;4.698;2023-05-29T07:59:15;24.20;46.60
76607;DHT22;65498;50.916;4.698;2023-05-29T08:01:43;24.20;47.10
76607;DHT22;65498;50.916;4.698;2023-05-29T08:04:11;24.20;47.00
76607;DHT22;65498;50.916;4.698;2023-05-29T08:06:39;24.20;47.30
76607;DHT22;65498;50.916;4.698;2023-05-29T08:09:09;24.10;47.10
76607;DHT22;65498;50.916;4.698;2023-05-29T08:11:37;24.10;47.50
76607;DHT22;65498;50.916;4.698;2023-05-29T08:14:04;24.10;47.40
76607;DHT22;65498;50.916;4.698;2023-05-29T08:16:32;24.10;47.50
76607;DHT22;65498;50.916;4.698;2023-05-29T08:18:59;24.20;47.40
76607;DHT22;65498;50.916;4.698;2023-05-29T08:21:27;24.10;47.20
76607;DHT22;65498;50.916;4.698;2023-05-29T08:23:54;24.20;47.40
76607;DHT22;65498;50.916;4.698;2023-05-29T08:26:22;24.20;47.30
76607;DHT22;65498;50.916;4.698;2023-05-29T08:28:49;24.20;47.40
76607;DHT22;65498;50.916;4.698;2023-05-29T08:31:17;24.20;47.40
76607;DHT22;65498;50.916;4.698;2023-05-29T08:33:44;24.10;47.40
76607;DHT22;65498;50.916;4.698;2023-05-29T08:36:12;24.10;47.60
76607;DHT22;65498;50.916;4.698;2023-05-29T08:38:39;24.10;47.50
76607;DHT22;65498;50.916;4.698;2023-05-29T08:41:07;24.10;47.90
76607;DHT22;65498;50.916;4.698;2023-05-29T08:43:36;24.10;48.30
76607;DHT22;65498;50.916;4.698;2023-05-29T08:46:05;24.10;48.10
76607;DHT22;65498;50.916;4.698;2023-05-29T08:48:35;24.10;48.10
76607;DHT22;65498;50.916;4.698;2023-05-29T08:51:04;24.10;48.20
76607;DHT22;65498;50.916;4.698;2023-05-29T08:53:33;24.10;48.10
76607;DHT22;65498;50.916;4.698;2023-05-29T08:56:21;24.10;48.60
76607;DHT22;65498;50.916;4.698;2023-05-29T08:58:49;24.10;47.60
76607;DHT22;65498;50.916;4.698;2023-05-29T09:01:20;24.10;48.20
76607;DHT22;65498;50.916;4.698;2023-05-29T09:03:48;24.00;48.20
76607;DHT22;65498;50.916;4.698;2023-05-29T09:06:16;24.10;48.30
76607;DHT22;65498;50.916;4.698;2023-05-29T09:08:44;24.10;48.40
76607;DHT22;65498;50.916;4.698;2023-05-29T09:11:13;23.90;46.20
76607;DHT22;65498;50.916;4.698;2023-05-29T09:13:40;23.60;46.90
76607;DHT22;65498;50.916;4.698;2023-05-29T09:16:08;23.50;46.50
76607;DHT22;65498;50.916;4.698;2023-05-29T09:18:35;23.60;47.00
76607;DHT22;65498;50.916;4.698;2023-05-29T09:21:07;23.70;47.90
76607;DHT22;65498;50.916;4.698;2023-05-29T09:23:36;23.80;47.20
76607;DHT22;65498;50.916;4.698;2023-05-29T09:26:03;23.90;46.80
76607;DHT22;65498;50.916;4.698;2023-05-29T09:28:31;23.90;47.00
76607;DHT22;65498;50.916;4.698;2023-05-29T09:30:59;23.90;47.00
76607;DHT22;65498;50.916;4.698;2023-05-29T09:33:27;23.90;47.10
76607;DHT22;65498;50.916;4.698;2023-05-29T09:35:54;23.90;47.10
76607;DHT22;65498;50.916;4.698;2023-05-29T09:38:22;23.90;47.20
76607;DHT22;65498;50.916;4.698;2023-05-29T09:40:49;23.90;47.10
76607;DHT22;65498;50.916;4.698;2023-05-29T09:43:18;23.90;46.90
76607;DHT22;65498;50.916;4.698;2023-05-29T09:45:49;23.90;46.90
76607;DHT22;65498;50.916;4.698;2023-05-29T09:48:19;23.90;47.00
76607;DHT22;65498;50.916;4.698;2023-05-29T09:50:48;23.90;47.00
76607;DHT22;65498;50.916;4.698;2023-05-29T09:53:18;23.90;47.10
76607;DHT22;65498;50.916;4.698;2023-05-29T09:55:52;23.90;46.40
76607;DHT22;65498;50.916;4.698;2023-05-29T09:58:21;23.90;47.20
76607;DHT22;65498;50.916;4.698;2023-05-29T10:00:50;23.90;47.90
76607;DHT22;65498;50.916;4.698;2023-05-29T10:03:18;23.90;47.20
76607;DHT22;65498;50.916;4.698;2023-05-29T10:05:50;23.90;47.30
76607;DHT22;65498;50.916;4.698;2023-05-29T10:08:19;23.90;47.20
76607;DHT22;65498;50.916;4.698;2023-05-29T10:11:21;23.90;47.20
76607;DHT22;65498;50.916;4.698;2023-05-29T10:13:24;23.90;47.10
76607;DHT22;65498;50.916;4.698;2023-05-29T10:15:53;23.90;46.80
76607;DHT22;65498;50.916;4.698;2023-05-29T10:18:27;23.80;47.00
76607;DHT22;65498;50.916;4.698;2023-05-29T10:20:56;23.90;47.20
76607;DHT22;65498;50.916;4.698;2023-05-29T10:23:26;23.80;47.20
76607;DHT22;65498;50.916;4.698;2023-05-29T10:26:03;23.80;47.10
76607;DHT22;65498;50.916;4.698;2023-05-29T10:28:28;23.80;47.20
76607;DHT22;65498;50.916;4.698;2023-05-29T10:31:13;23.80;47.00
76607;DHT22;65498;50.916;4.698;2023-05-29T10:36:40;23.80;47.20
76607;DHT22;65498;50.916;4.698;2023-05-29T10:39:06;23.80;47.40
76607;DHT22;65498;50.916;4.698;2023-05-29T10:41:35;23.80;47.40
76607;DHT22;65498;50.916;4.698;2023-05-29T10:44:04;23.70;47.40
76607;DHT22;65498;50.916;4.698;2023-05-29T10:49:20;23.70;47.20
76607;DHT22;65498;50.916;4.698;2023-05-29T10:51:49;23.70;46.90
76607;DHT22;65498;50.916;4.698;2023-05-29T10:54:19;23.70;46.00
76607;DHT22;65498;50.916;4.698;2023-05-29T10:56:57;23.70;45.70
76607;DHT22;65498;50.916;4.698;2023-05-29T10:59:26;23.70;45.80
76607;DHT22;65498;50.916;4.698;2023-05-29T11:01:55;23.70;45.80
76607;DHT22;65498;50.916;4.698;2023-05-29T11:04:26;23.70;47.00
76607;DHT22;65498;50.916;4.698;2023-05-29T11:06:54;23.70;45.90
76607;DHT22;65498;50.916;4.698;2023-05-29T11:09:30;23.70;46.30
76607;DHT22;65498;50.916;4.698;2023-05-29T11:12:22;23.70;45.20
76607;DHT22;65498;50.916;4.698;2023-05-29T11:14:50;23.80;44.80
76607;DHT22;65498;50.916;4.698;2023-05-29T11:20:16;23.70;45.80
76607;DHT22;65498;50.916;4.698;2023-05-29T11:25:17;23.70;44.40
76607;DHT22;65498;50.916;4.698;2023-05-29T11:27:45;23.60;44.30
76607;DHT22;65498;50.916;4.698;2023-05-29T11:30:13;23.60;45.50
76607;DHT22;65498;50.916;4.698;2023-05-29T11:32:42;23.70;44.60
76607;DHT22;65498;50.916;4.698;2023-05-29T11:35:11;23.70;45.00
76607;DHT22;65498;50.916;4.698;2023-05-29T11:37:40;23.70;44.80
76607;DHT22;65498;50.916;4.698;2023-05-29T11:40:14;23.70;44.80
76607;DHT22;65498;50.916;4.698;2023-05-29T11:42:43;23.70;45.60
76607;DHT22;65498;50.916;4.698;2023-05-29T11:45:18;23.70;45.40
76607;DHT22;65498;50.916;4.698;2023-05-29T11:47:59;23.70;45.20
76607;DHT22;65498;50.916;4.698;2023-05-29T11:50:30;23.70;44.30
76607;DHT22;65498;50.916;4.698;2023-05-29T11:53:06;23.70;44.60
76607;DHT22;65498;50.916;4.698;2023-05-29T11:55:34;23.60;44.40
76607;DHT22;65498;50.916;4.698;2023-05-29T11:58:03;23.70;44.40
76607;DHT22;65498;50.916;4.698;2023-05-29T12:00:34;23.70;45.50
76607;DHT22;65498;50.916;4.698;2023-05-29T12:03:03;23.70;44.80
76607;DHT22;65498;50.916;4.698;2023-05-29T12:05:33;23.70;45.10
76607;DHT22;65498;50.916;4.698;2023-05-29T12:08:01;23.70;45.10
76607;DHT22;65498;50.916;4.698;2023-05-29T12:10:31;23.70;45.20
76607;DHT22;65498;50.916;4.698;2023-05-29T12:12:59;23.70;45.20
76607;DHT22;65498;50.916;4.698;2023-05-29T12:15:30;23.80;45.40
76607;DHT22;65498;50.916;4.698;2023-05-29T12:17:57;23.80;45.30
76607;DHT22;65498;50.916;4.698;2023-05-29T12:20:25;23.80;45.50
76607;DHT22;65498;50.916;4.698;2023-05-29T12:22:54;23.80;45.50
76607;DHT22;65498;50.916;4.698;2023-05-29T12:25:22;23.80;45.70
76607;DHT22;65498;50.916;4.698;2023-05-29T12:27:50;23.80;45.80
76607;DHT22;65498;50.916;4.698;2023-05-29T12:30:19;23.80;45.70
76607;DHT22;65498;50.916;4.698;2023-05-29T12:32:49;23.80;45.70
76607;DHT22;65498;50.916;4.698;2023-05-29T12:35:21;23.80;45.70
76607;DHT22;65498;50.916;4.698;2023-05-29T12:40:21;23.80;46.00
76607;DHT22;65498;50.916;4.698;2023-05-29T12:42:56;23.80;45.80
76607;DHT22;65498;50.916;4.698;2023-05-29T12:45:18;23.90;46.00
76607;DHT22;65498;50.916;4.698;2023-05-29T12:50:27;23.80;46.20
76607;DHT22;65498;50.916;4.698;2023-05-29T12:53:02;23.90;46.30
76607;DHT22;65498;50.916;4.698;2023-05-29T12:55:33;23.90;46.30
76607;DHT22;65498;50.916;4.698;2023-05-29T12:58:03;23.90;46.00
76607;DHT22;65498;50.916;4.698;2023-05-29T13:00:31;23.90;45.80
76607;DHT22;65498;50.916;4.698;2023-05-29T13:02:59;23.80;45.60
76607;DHT22;65498;50.916;4.698;2023-05-29T13:05:28;23.90;45.50
76607;DHT22;65498;50.916;4.698;2023-05-29T13:07:56;23.80;45.20
76607;DHT22;65498;50.916;4.698;2023-05-29T13:10:25;23.80;45.50
76607;DHT22;65498;50.916;4.698;2023-05-29T13:12:54;23.90;45.90
76607;DHT22;65498;50.916;4.698;2023-05-29T13:15:23;23.90;45.70
76607;DHT22;65498;50.916;4.698;2023-05-29T13:17:51;23.90;45.60
76607;DHT22;65498;50.916;4.698;2023-05-29T13:20:18;23.90;45.80
76607;DHT22;65498;50.916;4.698;2023-05-29T13:22:48;23.90;45.70
76607;DHT22;65498;50.916;4.698;2023-05-29T13:25:17;23.90;45.80
76607;DHT22;65498;50.916;4.698;2023-05-29T13:27:50;23.90;46.00
76607;DHT22;65498;50.916;4.698;2023-05-29T13:30:18;23.90;46.00
76607;DHT22;65498;50.916;4.698;2023-05-29T13:32:45;24.00;45.80
76607;DHT22;65498;50.916;4.698;2023-05-29T13:35:13;24.00;45.70
76607;DHT22;65498;50.916;4.698;2023-05-29T13:37:41;24.00;45.70
76607;DHT22;65498;50.916;4.698;2023-05-29T13:40:10;24.00;46.00
76607;DHT22;65498;50.916;4.698;2023-05-29T13:42:40;24.00;46.00
76607;DHT22;65498;50.916;4.698;2023-05-29T13:45:08;24.00;45.90
76607;DHT22;65498;50.916;4.698;2023-05-29T13:47:36;24.00;45.90
76607;DHT22;65498;50.916;4.698;2023-05-29T13:50:04;24.00;46.00
76607;DHT22;65498;50.916;4.698;2023-05-29T13:52:32;24.00;46.10
76607;DHT22;65498;50.916;4.698;2023-05-29T13:55:00;24.00;46.10
76607;DHT22;65498;50.916;4.698;2023-05-29T13:57:29;24.00;46.00
76607;DHT22;65498;50.916;4.698;2023-05-29T13:59:57;24.00;46.30
76607;DHT22;65498;50.916;4.698;2023-05-29T14:02:25;24.00;46.20
76607;DHT22;65498;50.916;4.698;2023-05-29T14:04:53;24.00;46.20
76607;DHT22;65498;50.916;4.698;2023-05-29T14:07:20;24.00;46.30
76607;DHT22;65498;50.916;4.698;2023-05-29T14:09:48;24.00;46.30
76607;DHT22;65498;50.916;4.698;2023-05-29T14:12:16;24.00;46.20
76607;DHT22;65498;50.916;4.698;2023-05-29T14:14:43;24.00;46.30
76607;DHT22;65498;50.916;4.698;2023-05-29T14:17:11;24.10;46.00
76607;DHT22;65498;50.916;4.698;2023-05-29T14:19:39;24.10;46.20
76607;DHT22;65498;50.916;4.698;2023-05-29T14:22:06;24.10;46.30
76607;DHT22;65498;50.916;4.698;2023-05-29T14:24:34;24.10;46.40
76607;DHT22;65498;50.916;4.698;2023-05-29T14:27:03;24.10;46.10
76607;DHT22;65498;50.916;4.698;2023-05-29T14:29:30;24.10;46.30
76607;DHT22;65498;50.916;4.698;2023-05-29T14:31:58;24.10;46.20
76607;DHT22;65498;50.916;4.698;2023-05-29T14:34:25;24.10;46.50
76607;DHT22;65498;50.916;4.698;2023-05-29T14:36:53;24.00;46.50
76607;DHT22;65498;50.916;4.698;2023-05-29T14:39:21;24.10;46.30
76607;DHT22;65498;50.916;4.698;2023-05-29T14:41:48;24.10;46.50
76607;DHT22;65498;50.916;4.698;2023-05-29T14:44:16;24.10;46.50
76607;DHT22;65498;50.916;4.698;2023-05-29T14:46:43;24.10;46.40
76607;DHT22;65498;50.916;4.698;2023-05-29T14:49:11;24.10;46.40
76607;DHT22;65498;50.916;4.698;2023-05-29T14:51:38;24.00;46.50
76607;DHT22;65498;50.916;4.698;2023-05-29T14:54:07;24.10;46.60
76607;DHT22;65498;50.916;4.698;2023-05-29T14:56:35;24.10;46.50
76607;DHT22;65498;50.916;4.698;2023-05-29T14:59:03;24.10;46.40
76607;DHT22;65498;50.916;4.698;2023-05-29T15:01:30;24.10;46.30
76607;DHT22;65498;50.916;4.698;2023-05-29T15:03:58;24.00;46.30
76607;DHT22;65498;50.916;4.698;2023-05-29T15:06:25;24.00;46.20
76607;DHT22;65498;50.916;4.698;2023-05-29T15:08:53;24.00;46.10
76607;DHT22;65498;50.916;4.698;2023-05-29T15:11:22;24.00;46.30
76607;DHT22;65498;50.916;4.698;2023-05-29T15:13:50;24.00;46.10
76607;DHT22;65498;50.916;4.698;2023-05-29T15:16:17;24.10;46.20
76607;DHT22;65498;50.916;4.698;2023-05-29T15:18:45;24.00;46.20
76607;DHT22;65498;50.916;4.698;2023-05-29T15:21:13;24.00;46.10
76607;DHT22;65498;50.916;4.698;2023-05-29T15:23:41;24.00;46.20
76607;DHT22;65498;50.916;4.698;2023-05-29T15:26:10;24.10;46.30
76607;DHT22;65498;50.916;4.698;2023-05-29T15:28:38;24.00;46.10
76607;DHT22;65498;50.916;4.698;2023-05-29T15:31:05;24.00;46.00
76607;DHT22;65498;50.916;4.698;2023-05-29T15:33:33;24.00;46.10
76607;DHT22;65498;50.916;4.698;2023-05-29T15:36:01;24.00;45.90
76607;DHT22;65498;50.916;4.698;2023-05-29T15:38:28;24.00;46.10
76607;DHT22;65498;50.916;4.698;2023-05-29T15:40:57;24.00;46.00
76607;DHT22;65498;50.916;4.698;2023-05-29T15:43:25;24.00;46.00
76607;DHT22;65498;50.916;4.698;2023-05-29T15:45:52;24.00;45.90
76607;DHT22;65498;50.916;4.698;2023-05-29T15:48:20;24.00;45.50
76607;DHT22;65498;50.916;4.698;2023-05-29T15:50:48;24.00;45.60
76607;DHT22;65498;50.916;4.698;2023-05-29T15:53:15;23.90;45.50
76607;DHT22;65498;50.916;4.698;2023-05-29T15:55:43;24.00;45.20
76607;DHT22;65498;50.916;4.698;2023-05-29T15:58:10;24.00;45.50
76607;DHT22;65498;50.916;4.698;2023-05-29T16:00:38;24.00;45.60
76607;DHT22;65498;50.916;4.698;2023-05-29T16:03:05;24.00;45.60
76607;DHT22;65498;50.916;4.698;2023-05-29T16:05:34;24.00;45.80